Terminal Aerodrome Forecast
Issued by NWS Louisville, KY

Home | Current Version | Previous Version | Text Only | Print | Product List | Glossary On
Versions: 1 2 3 4 5 6 7 8 9 10 11 12 13 14 15 16 17 18
576
FTUS43 KLMK 202320
TAFSDF
TAF
KSDF 202320Z 2100/2206 18012G18KT P6SM FEW060 BKN100
     FM210400 18014KT P6SM SCT050 OVC070 WS020/20045KT
     FM210900 18016KT P6SM VCSH SCT025 OVC050 WS020/20050KT
      TEMPO 2109/2111 5SM SHRA BR BKN025
     FM211100 22013G19KT 4SM SHRA BR BKN018 OVC025
     FM211300 34013G23KT 4SM SHRA BR BKN012 OVC021
     FM211800 01013KT 3SM -SHRA BR BKN008 OVC015=

USA.gov is the U.S. government's official web portal to all federal, state and local government web resources and services.